sensor_id;sensor_type;location;lat;lon;timestamp;temperature;humidity
68867;SHT30;56451;44.804;20.476;2023-05-14T00:02:20;17.44;63.91
68867;SHT30;56451;44.804;20.476;2023-05-14T00:04:46;17.43;64.28
68867;SHT30;56451;44.804;20.476;2023-05-14T00:07:12;17.39;64.25
68867;SHT30;56451;44.804;20.476;2023-05-14T00:09:38;17.37;64.24
68867;SHT30;56451;44.804;20.476;2023-05-14T00:12:04;17.33;64.30
68867;SHT30;56451;44.804;20.476;2023-05-14T00:14:30;17.30;64.34
68867;SHT30;56451;44.804;20.476;2023-05-14T00:16:56;17.29;64.16
68867;SHT30;56451;44.804;20.476;2023-05-14T00:19:24;17.23;64.21
68867;SHT30;56451;44.804;20.476;2023-05-14T00:21:50;17.22;64.51
68867;SHT30;56451;44.804;20.476;2023-05-14T00:24:16;17.18;64.30
68867;SHT30;56451;44.804;20.476;2023-05-14T00:26:42;17.13;64.44
68867;SHT30;56451;44.804;20.476;2023-05-14T00:29:09;17.05;64.84
68867;SHT30;56451;44.804;20.476;2023-05-14T00:31:35;16.98;64.82
68867;SHT30;56451;44.804;20.476;2023-05-14T00:34:02;16.92;64.80
68867;SHT30;56451;44.804;20.476;2023-05-14T00:36:28;16.91;64.75
68867;SHT30;56451;44.804;20.476;2023-05-14T00:38:54;16.85;64.76
68867;SHT30;56451;44.804;20.476;2023-05-14T00:41:21;16.81;64.60
68867;SHT30;56451;44.804;20.476;2023-05-14T00:43:47;16.76;64.76
68867;SHT30;56451;44.804;20.476;2023-05-14T00:46:14;16.74;64.61
68867;SHT30;56451;44.804;20.476;2023-05-14T00:48:40;16.67;64.94
68867;SHT30;56451;44.804;20.476;2023-05-14T00:51:07;16.58;64.83
68867;SHT30;56451;44.804;20.476;2023-05-14T00:53:33;16.51;64.92
68867;SHT30;56451;44.804;20.476;2023-05-14T00:55:59;16.55;65.00
68867;SHT30;56451;44.804;20.476;2023-05-14T00:58:25;16.50;64.67
68867;SHT30;56451;44.804;20.476;2023-05-14T01:00:51;16.44;64.86
68867;SHT30;56451;44.804;20.476;2023-05-14T01:03:17;16.36;65.11
68867;SHT30;56451;44.804;20.476;2023-05-14T01:16:57;16.26;65.56
68867;SHT30;56451;44.804;20.476;2023-05-14T01:19:38;16.24;65.42
68867;SHT30;56451;44.804;20.476;2023-05-14T01:22:04;16.28;65.61
68867;SHT30;56451;44.804;20.476;2023-05-14T01:24:31;16.28;65.80
68867;SHT30;56451;44.804;20.476;2023-05-14T01:27:21;16.28;66.00
68867;SHT30;56451;44.804;20.476;2023-05-14T01:30:00;16.26;66.20
68867;SHT30;56451;44.804;20.476;2023-05-14T01:32:29;16.26;66.01
68867;SHT30;56451;44.804;20.476;2023-05-14T01:34:57;16.21;65.90
68867;SHT30;56451;44.804;20.476;2023-05-14T01:37:26;16.17;65.91
68867;SHT30;56451;44.804;20.476;2023-05-14T01:39:54;16.16;66.01
68867;SHT30;56451;44.804;20.476;2023-05-14T01:42:21;16.12;65.88
68867;SHT30;56451;44.804;20.476;2023-05-14T01:44:47;16.13;65.79
68867;SHT30;56451;44.804;20.476;2023-05-14T01:47:13;16.10;65.92
68867;SHT30;56451;44.804;20.476;2023-05-14T01:49:40;16.10;65.82
68867;SHT30;56451;44.804;20.476;2023-05-14T01:52:06;16.10;65.70
68867;SHT30;56451;44.804;20.476;2023-05-14T01:54:33;16.07;65.56
68867;SHT30;56451;44.804;20.476;2023-05-14T01:56:59;16.00;65.79
68867;SHT30;56451;44.804;20.476;2023-05-14T01:59:25;15.90;66.05
68867;SHT30;56451;44.804;20.476;2023-05-14T02:01:51;15.88;66.39
68867;SHT30;56451;44.804;20.476;2023-05-14T02:04:17;15.82;66.63
68867;SHT30;56451;44.804;20.476;2023-05-14T02:06:43;15.81;66.78
68867;SHT30;56451;44.804;20.476;2023-05-14T02:09:09;15.82;66.78
68867;SHT30;56451;44.804;20.476;2023-05-14T02:11:36;15.73;66.85
68867;SHT30;56451;44.804;20.476;2023-05-14T02:14:02;15.75;66.69
68867;SHT30;56451;44.804;20.476;2023-05-14T02:16:28;15.70;66.48
68867;SHT30;56451;44.804;20.476;2023-05-14T02:18:54;15.69;66.38
68867;SHT30;56451;44.804;20.476;2023-05-14T02:21:20;15.69;66.56
68867;SHT30;56451;44.804;20.476;2023-05-14T02:23:46;15.65;66.24
68867;SHT30;56451;44.804;20.476;2023-05-14T02:26:13;15.65;66.08
68867;SHT30;56451;44.804;20.476;2023-05-14T02:28:39;15.65;66.07
68867;SHT30;56451;44.804;20.476;2023-05-14T02:31:05;15.62;66.31
68867;SHT30;56451;44.804;20.476;2023-05-14T02:33:31;15.58;66.38
68867;SHT30;56451;44.804;20.476;2023-05-14T02:35:57;15.58;66.34
68867;SHT30;56451;44.804;20.476;2023-05-14T02:38:25;15.52;66.61
68867;SHT30;56451;44.804;20.476;2023-05-14T02:40:50;15.54;66.45
68867;SHT30;56451;44.804;20.476;2023-05-14T02:43:16;15.52;66.33
68867;SHT30;56451;44.804;20.476;2023-05-14T02:45:42;15.49;66.41
68867;SHT30;56451;44.804;20.476;2023-05-14T02:48:09;15.52;66.43
68867;SHT30;56451;44.804;20.476;2023-05-14T02:50:35;15.48;66.41
68867;SHT30;56451;44.804;20.476;2023-05-14T02:53:01;15.49;66.24
68867;SHT30;56451;44.804;20.476;2023-05-14T02:55:27;15.47;66.25
68867;SHT30;56451;44.804;20.476;2023-05-14T02:57:52;15.48;66.07
68867;SHT30;56451;44.804;20.476;2023-05-14T03:00:18;15.47;66.00
68867;SHT30;56451;44.804;20.476;2023-05-14T03:02:44;15.51;65.84
68867;SHT30;56451;44.804;20.476;2023-05-14T03:05:10;15.52;65.78
68867;SHT30;56451;44.804;20.476;2023-05-14T03:07:37;15.49;65.36
68867;SHT30;56451;44.804;20.476;2023-05-14T03:10:03;15.47;65.14
68867;SHT30;56451;44.804;20.476;2023-05-14T03:12:30;15.45;64.91
68867;SHT30;56451;44.804;20.476;2023-05-14T03:14:58;15.45;65.00
68867;SHT30;56451;44.804;20.476;2023-05-14T03:17:24;15.44;64.60
68867;SHT30;56451;44.804;20.476;2023-05-14T03:19:50;15.42;64.52
68867;SHT30;56451;44.804;20.476;2023-05-14T03:22:15;15.41;64.51
68867;SHT30;56451;44.804;20.476;2023-05-14T03:24:41;15.41;64.32
68867;SHT30;56451;44.804;20.476;2023-05-14T03:27:07;15.37;64.34
68867;SHT30;56451;44.804;20.476;2023-05-14T03:29:33;15.35;64.58
68867;SHT30;56451;44.804;20.476;2023-05-14T03:31:59;15.32;64.55
68867;SHT30;56451;44.804;20.476;2023-05-14T03:34:25;15.28;64.69
68867;SHT30;56451;44.804;20.476;2023-05-14T03:36:51;15.30;64.66
68867;SHT30;56451;44.804;20.476;2023-05-14T03:39:17;15.24;64.50
68867;SHT30;56451;44.804;20.476;2023-05-14T03:41:47;15.21;64.63
68867;SHT30;56451;44.804;20.476;2023-05-14T03:44:13;15.23;64.52
68867;SHT30;56451;44.804;20.476;2023-05-14T03:46:41;15.24;64.50
68867;SHT30;56451;44.804;20.476;2023-05-14T03:49:07;15.21;64.62
68867;SHT30;56451;44.804;20.476;2023-05-14T03:51:33;15.26;64.29
68867;SHT30;56451;44.804;20.476;2023-05-14T03:54:00;15.20;64.43
68867;SHT30;56451;44.804;20.476;2023-05-14T03:56:26;15.14;64.58
68867;SHT30;56451;44.804;20.476;2023-05-14T03:58:52;15.17;64.53
68867;SHT30;56451;44.804;20.476;2023-05-14T04:01:18;15.18;64.48
68867;SHT30;56451;44.804;20.476;2023-05-14T04:03:44;15.20;64.29
68867;SHT30;56451;44.804;20.476;2023-05-14T04:06:12;15.20;64.45
68867;SHT30;56451;44.804;20.476;2023-05-14T04:08:38;15.27;64.32
68867;SHT30;56451;44.804;20.476;2023-05-14T04:11:03;15.26;64.12
68867;SHT30;56451;44.804;20.476;2023-05-14T04:13:29;15.24;64.16
68867;SHT30;56451;44.804;20.476;2023-05-14T04:15:55;15.24;64.09
68867;SHT30;56451;44.804;20.476;2023-05-14T04:18:22;15.17;64.50
68867;SHT30;56451;44.804;20.476;2023-05-14T04:20:48;15.18;64.74
68867;SHT30;56451;44.804;20.476;2023-05-14T04:23:14;15.20;64.89
68867;SHT30;56451;44.804;20.476;2023-05-14T04:25:40;15.26;65.13
68867;SHT30;56451;44.804;20.476;2023-05-14T04:28:06;15.27;65.37
68867;SHT30;56451;44.804;20.476;2023-05-14T04:30:32;15.27;66.02
68867;SHT30;56451;44.804;20.476;2023-05-14T04:32:58;15.24;66.18
68867;SHT30;56451;44.804;20.476;2023-05-14T04:35:24;15.24;66.57
68867;SHT30;56451;44.804;20.476;2023-05-14T04:37:50;15.20;66.99
68867;SHT30;56451;44.804;20.476;2023-05-14T04:40:16;15.07;67.60
68867;SHT30;56451;44.804;20.476;2023-05-14T04:42:42;15.01;67.84
68867;SHT30;56451;44.804;20.476;2023-05-14T04:45:09;14.96;68.23
68867;SHT30;56451;44.804;20.476;2023-05-14T04:47:35;14.94;68.44
68867;SHT30;56451;44.804;20.476;2023-05-14T04:50:01;14.96;68.37
68867;SHT30;56451;44.804;20.476;2023-05-14T04:52:27;14.91;68.52
68867;SHT30;56451;44.804;20.476;2023-05-14T04:54:54;14.90;69.08
68867;SHT30;56451;44.804;20.476;2023-05-14T04:57:21;14.90;69.26
68867;SHT30;56451;44.804;20.476;2023-05-14T04:59:47;14.91;69.03
68867;SHT30;56451;44.804;20.476;2023-05-14T05:02:13;14.91;69.15
68867;SHT30;56451;44.804;20.476;2023-05-14T05:04:39;14.91;69.42
68867;SHT30;56451;44.804;20.476;2023-05-14T05:07:05;14.93;69.39
68867;SHT30;56451;44.804;20.476;2023-05-14T05:09:31;14.97;69.49
68867;SHT30;56451;44.804;20.476;2023-05-14T05:11:57;14.97;69.23
68867;SHT30;56451;44.804;20.476;2023-05-14T05:14:23;14.99;69.26
68867;SHT30;56451;44.804;20.476;2023-05-14T05:16:50;15.04;69.16
68867;SHT30;56451;44.804;20.476;2023-05-14T05:19:16;15.08;69.06
68867;SHT30;56451;44.804;20.476;2023-05-14T05:21:41;15.10;69.17
68867;SHT30;56451;44.804;20.476;2023-05-14T05:24:07;15.10;69.28
68867;SHT30;56451;44.804;20.476;2023-05-14T05:26:33;15.08;69.33
68867;SHT30;56451;44.804;20.476;2023-05-14T05:29:02;15.04;69.60
68867;SHT30;56451;44.804;20.476;2023-05-14T05:31:29;15.06;69.32
68867;SHT30;56451;44.804;20.476;2023-05-14T05:33:55;15.04;69.63
68867;SHT30;56451;44.804;20.476;2023-05-14T05:36:21;15.03;69.56
68867;SHT30;56451;44.804;20.476;2023-05-14T05:38:46;15.04;69.54
68867;SHT30;56451;44.804;20.476;2023-05-14T05:41:12;15.06;69.78
68867;SHT30;56451;44.804;20.476;2023-05-14T05:43:38;15.04;69.73
68867;SHT30;56451;44.804;20.476;2023-05-14T05:46:04;15.01;69.92
68867;SHT30;56451;44.804;20.476;2023-05-14T05:48:30;15.07;69.81
68867;SHT30;56451;44.804;20.476;2023-05-14T05:50:56;15.04;69.73
68867;SHT30;56451;44.804;20.476;2023-05-14T05:53:22;15.04;69.58
68867;SHT30;56451;44.804;20.476;2023-05-14T05:55:48;15.04;69.40
68867;SHT30;56451;44.804;20.476;2023-05-14T05:58:17;15.10;69.34
68867;SHT30;56451;44.804;20.476;2023-05-14T06:00:44;15.01;69.36
68867;SHT30;56451;44.804;20.476;2023-05-14T06:03:10;14.97;69.56
68867;SHT30;56451;44.804;20.476;2023-05-14T06:05:36;14.97;69.90
68867;SHT30;56451;44.804;20.476;2023-05-14T06:08:02;14.93;69.94
68867;SHT30;56451;44.804;20.476;2023-05-14T06:10:28;14.93;70.01
68867;SHT30;56451;44.804;20.476;2023-05-14T06:12:54;14.91;70.01
68867;SHT30;56451;44.804;20.476;2023-05-14T06:15:21;14.87;70.64
68867;SHT30;56451;44.804;20.476;2023-05-14T06:17:47;14.90;70.34
68867;SHT30;56451;44.804;20.476;2023-05-14T06:20:13;14.89;70.43
68867;SHT30;56451;44.804;20.476;2023-05-14T06:22:38;14.89;70.36
68867;SHT30;56451;44.804;20.476;2023-05-14T06:25:05;14.90;70.19
68867;SHT30;56451;44.804;20.476;2023-05-14T06:27:31;14.91;70.32
68867;SHT30;56451;44.804;20.476;2023-05-14T06:29:57;14.87;71.03
68867;SHT30;56451;44.804;20.476;2023-05-14T06:32:23;14.89;70.54
68867;SHT30;56451;44.804;20.476;2023-05-14T06:34:48;14.91;70.59
68867;SHT30;56451;44.804;20.476;2023-05-14T06:37:15;14.99;70.75
68867;SHT30;56451;44.804;20.476;2023-05-14T06:39:41;15.04;70.52
68867;SHT30;56451;44.804;20.476;2023-05-14T06:42:15;15.07;70.46
68867;SHT30;56451;44.804;20.476;2023-05-14T06:44:41;15.11;70.72
68867;SHT30;56451;44.804;20.476;2023-05-14T06:47:08;15.11;70.93
68867;SHT30;56451;44.804;20.476;2023-05-14T06:49:34;15.16;71.07
68867;SHT30;56451;44.804;20.476;2023-05-14T06:52:00;15.20;70.52
68867;SHT30;56451;44.804;20.476;2023-05-14T06:54:26;15.23;70.43
68867;SHT30;56451;44.804;20.476;2023-05-14T06:56:53;15.27;70.12
68867;SHT30;56451;44.804;20.476;2023-05-14T06:59:19;15.28;69.88
68867;SHT30;56451;44.804;20.476;2023-05-14T07:01:45;15.30;69.52
68867;SHT30;56451;44.804;20.476;2023-05-14T07:04:11;15.27;69.45
68867;SHT30;56451;44.804;20.476;2023-05-14T07:06:37;15.31;69.44
68867;SHT30;56451;44.804;20.476;2023-05-14T07:09:03;15.28;69.49
68867;SHT30;56451;44.804;20.476;2023-05-14T07:11:29;15.27;68.94
68867;SHT30;56451;44.804;20.476;2023-05-14T07:13:55;15.28;69.02
68867;SHT30;56451;44.804;20.476;2023-05-14T07:16:21;15.27;69.05
68867;SHT30;56451;44.804;20.476;2023-05-14T07:18:47;15.24;69.05
68867;SHT30;56451;44.804;20.476;2023-05-14T07:21:13;15.21;69.20
68867;SHT30;56451;44.804;20.476;2023-05-14T07:23:39;15.23;69.34
68867;SHT30;56451;44.804;20.476;2023-05-14T07:26:06;15.27;69.36
68867;SHT30;56451;44.804;20.476;2023-05-14T07:28:32;15.24;69.34
68867;SHT30;56451;44.804;20.476;2023-05-14T07:30:59;15.27;69.50
68867;SHT30;56451;44.804;20.476;2023-05-14T07:33:25;15.23;69.19
68867;SHT30;56451;44.804;20.476;2023-05-14T07:35:51;15.18;69.24
68867;SHT30;56451;44.804;20.476;2023-05-14T07:38:18;15.21;69.32
68867;SHT30;56451;44.804;20.476;2023-05-14T07:40:45;15.20;69.15
68867;SHT30;56451;44.804;20.476;2023-05-14T07:43:11;15.20;69.51
68867;SHT30;56451;44.804;20.476;2023-05-14T07:45:37;15.20;69.54
68867;SHT30;56451;44.804;20.476;2023-05-14T07:48:07;15.23;69.16
68867;SHT30;56451;44.804;20.476;2023-05-14T07:50:33;15.24;69.34
68867;SHT30;56451;44.804;20.476;2023-05-14T07:52:58;15.31;69.15
68867;SHT30;56451;44.804;20.476;2023-05-14T07:55:25;15.27;69.22
68867;SHT30;56451;44.804;20.476;2023-05-14T07:57:50;15.27;69.45
68867;SHT30;56451;44.804;20.476;2023-05-14T08:00:17;15.32;69.20
68867;SHT30;56451;44.804;20.476;2023-05-14T08:02:43;15.35;69.00
68867;SHT30;56451;44.804;20.476;2023-05-14T08:05:09;15.37;69.05
68867;SHT30;56451;44.804;20.476;2023-05-14T08:07:35;15.38;69.28
68867;SHT30;56451;44.804;20.476;2023-05-14T08:10:02;15.49;68.90
68867;SHT30;56451;44.804;20.476;2023-05-14T08:12:29;15.51;68.81
68867;SHT30;56451;44.804;20.476;2023-05-14T08:14:55;15.49;68.67
68867;SHT30;56451;44.804;20.476;2023-05-14T08:17:21;15.58;68.67
68867;SHT30;56451;44.804;20.476;2023-05-14T08:19:47;15.69;68.29
68867;SHT30;56451;44.804;20.476;2023-05-14T08:22:14;15.76;68.13
68867;SHT30;56451;44.804;20.476;2023-05-14T08:24:40;15.81;68.22
68867;SHT30;56451;44.804;20.476;2023-05-14T08:27:08;15.86;68.09
68867;SHT30;56451;44.804;20.476;2023-05-14T08:29:34;15.88;67.74
68867;SHT30;56451;44.804;20.476;2023-05-14T08:32:00;15.95;67.69
68867;SHT30;56451;44.804;20.476;2023-05-14T08:34:26;15.96;68.04
68867;SHT30;56451;44.804;20.476;2023-05-14T08:36:53;16.02;67.92
68867;SHT30;56451;44.804;20.476;2023-05-14T08:39:21;16.06;68.02
68867;SHT30;56451;44.804;20.476;2023-05-14T08:41:47;16.03;68.18
68867;SHT30;56451;44.804;20.476;2023-05-14T08:44:17;16.05;68.24
68867;SHT30;56451;44.804;20.476;2023-05-14T08:46:43;16.06;68.41
68867;SHT30;56451;44.804;20.476;2023-05-14T08:52:06;16.16;68.31
68867;SHT30;56451;44.804;20.476;2023-05-14T08:54:33;16.23;68.35
68867;SHT30;56451;44.804;20.476;2023-05-14T08:56:59;16.28;68.20
68867;SHT30;56451;44.804;20.476;2023-05-14T08:59:25;16.37;68.18
68867;SHT30;56451;44.804;20.476;2023-05-14T09:01:53;16.40;68.14
68867;SHT30;56451;44.804;20.476;2023-05-14T09:04:21;16.43;68.26
68867;SHT30;56451;44.804;20.476;2023-05-14T09:06:52;16.41;68.21
68867;SHT30;56451;44.804;20.476;2023-05-14T09:09:21;16.44;68.42
68867;SHT30;56451;44.804;20.476;2023-05-14T09:11:49;16.48;68.33
68867;SHT30;56451;44.804;20.476;2023-05-14T09:14:15;16.50;68.47
68867;SHT30;56451;44.804;20.476;2023-05-14T09:16:46;16.54;68.34
68867;SHT30;56451;44.804;20.476;2023-05-14T09:19:13;16.57;68.16
68867;SHT30;56451;44.804;20.476;2023-05-14T09:21:40;16.61;68.40
68867;SHT30;56451;44.804;20.476;2023-05-14T09:24:07;16.65;68.36
68867;SHT30;56451;44.804;20.476;2023-05-14T09:26:34;16.69;68.19
68867;SHT30;56451;44.804;20.476;2023-05-14T09:29:00;16.72;68.16
68867;SHT30;56451;44.804;20.476;2023-05-14T09:31:31;16.78;68.17
68867;SHT30;56451;44.804;20.476;2023-05-14T09:33:57;16.85;68.15
68867;SHT30;56451;44.804;20.476;2023-05-14T09:36:23;16.98;67.99
68867;SHT30;56451;44.804;20.476;2023-05-14T09:38:52;17.09;67.87
68867;SHT30;56451;44.804;20.476;2023-05-14T09:41:20;17.18;67.63
68867;SHT30;56451;44.804;20.476;2023-05-14T09:43:48;17.24;67.16
68867;SHT30;56451;44.804;20.476;2023-05-14T09:46:15;17.34;66.74
68867;SHT30;56451;44.804;20.476;2023-05-14T09:48:41;17.51;66.53
68867;SHT30;56451;44.804;20.476;2023-05-14T09:51:09;17.59;66.47
68867;SHT30;56451;44.804;20.476;2023-05-14T09:53:36;17.69;66.32
68867;SHT30;56451;44.804;20.476;2023-05-14T09:56:02;17.80;65.72
68867;SHT30;56451;44.804;20.476;2023-05-14T09:58:28;17.85;65.53
68867;SHT30;56451;44.804;20.476;2023-05-14T10:00:56;17.98;65.53
68867;SHT30;56451;44.804;20.476;2023-05-14T10:03:24;18.13;64.34
68867;SHT30;56451;44.804;20.476;2023-05-14T10:05:51;18.33;63.64
68867;SHT30;56451;44.804;20.476;2023-05-14T10:08:21;18.46;63.40
68867;SHT30;56451;44.804;20.476;2023-05-14T10:10:50;18.59;62.88
68867;SHT30;56451;44.804;20.476;2023-05-14T10:13:19;18.71;62.45
68867;SHT30;56451;44.804;20.476;2023-05-14T10:18:39;18.91;61.70
68867;SHT30;56451;44.804;20.476;2023-05-14T10:21:06;19.00;61.59
68867;SHT30;56451;44.804;20.476;2023-05-14T10:23:33;19.04;61.48
68867;SHT30;56451;44.804;20.476;2023-05-14T10:26:02;19.11;61.37
68867;SHT30;56451;44.804;20.476;2023-05-14T10:28:30;19.22;61.25
68867;SHT30;56451;44.804;20.476;2023-05-14T10:30:56;19.28;60.93
68867;SHT30;56451;44.804;20.476;2023-05-14T10:33:23;19.32;60.89
68867;SHT30;56451;44.804;20.476;2023-05-14T10:36:00;19.35;60.89
68867;SHT30;56451;44.804;20.476;2023-05-14T10:38:28;19.45;60.77
68867;SHT30;56451;44.804;20.476;2023-05-14T10:40:57;19.51;60.81
68867;SHT30;56451;44.804;20.476;2023-05-14T10:43:28;19.59;60.78
68867;SHT30;56451;44.804;20.476;2023-05-14T10:45:56;19.66;60.71
68867;SHT30;56451;44.804;20.476;2023-05-14T10:48:23;19.75;60.52
68867;SHT30;56451;44.804;20.476;2023-05-14T10:50:51;19.83;60.15
68867;SHT30;56451;44.804;20.476;2023-05-14T10:53:17;19.87;60.05
68867;SHT30;56451;44.804;20.476;2023-05-14T10:55:44;19.93;60.11
68867;SHT30;56451;44.804;20.476;2023-05-14T10:58:10;20.03;59.86
68867;SHT30;56451;44.804;20.476;2023-05-14T11:00:37;20.10;59.85
68867;SHT30;56451;44.804;20.476;2023-05-14T11:03:04;20.14;60.06
68867;SHT30;56451;44.804;20.476;2023-05-14T11:05:30;20.14;59.82
68867;SHT30;56451;44.804;20.476;2023-05-14T11:07:57;20.17;59.72
68867;SHT30;56451;44.804;20.476;2023-05-14T11:10:24;20.30;59.86
68867;SHT30;56451;44.804;20.476;2023-05-14T11:12:56;20.37;59.88
68867;SHT30;56451;44.804;20.476;2023-05-14T11:15:24;20.48;59.55
68867;SHT30;56451;44.804;20.476;2023-05-14T11:17:52;20.62;59.39
68867;SHT30;56451;44.804;20.476;2023-05-14T11:20:18;20.65;59.09
68867;SHT30;56451;44.804;20.476;2023-05-14T11:22:46;20.76;59.06
68867;SHT30;56451;44.804;20.476;2023-05-14T11:25:13;20.81;58.62
68867;SHT30;56451;44.804;20.476;2023-05-14T11:27:40;20.85;58.73
68867;SHT30;56451;44.804;20.476;2023-05-14T11:30:25;20.90;57.60
68867;SHT30;56451;44.804;20.476;2023-05-14T11:32:51;20.88;57.76
68867;SHT30;56451;44.804;20.476;2023-05-14T11:35:18;20.89;58.01
68867;SHT30;56451;44.804;20.476;2023-05-14T11:37:51;20.92;58.10
68867;SHT30;56451;44.804;20.476;2023-05-14T11:40:17;20.89;58.04
68867;SHT30;56451;44.804;20.476;2023-05-14T11:42:43;20.98;57.07
68867;SHT30;56451;44.804;20.476;2023-05-14T11:45:11;20.99;56.84
68867;SHT30;56451;44.804;20.476;2023-05-14T11:47:37;20.90;57.05
68867;SHT30;56451;44.804;20.476;2023-05-14T11:50:04;20.98;57.11
68867;SHT30;56451;44.804;20.476;2023-05-14T11:52:30;20.99;57.67
68867;SHT30;56451;44.804;20.476;2023-05-14T11:54:56;20.96;57.96
68867;SHT30;56451;44.804;20.476;2023-05-14T11:57:22;21.03;58.53
68867;SHT30;56451;44.804;20.476;2023-05-14T11:59:48;21.10;58.59
68867;SHT30;56451;44.804;20.476;2023-05-14T12:02:20;21.19;58.29
68867;SHT30;56451;44.804;20.476;2023-05-14T12:04:50;21.29;57.81
68867;SHT30;56451;44.804;20.476;2023-05-14T12:07:19;21.34;56.91
68867;SHT30;56451;44.804;20.476;2023-05-14T12:09:47;21.40;56.90
68867;SHT30;56451;44.804;20.476;2023-05-14T12:12:20;21.43;57.24
68867;SHT30;56451;44.804;20.476;2023-05-14T12:14:47;21.47;57.15
68867;SHT30;56451;44.804;20.476;2023-05-14T12:17:18;21.51;57.63
68867;SHT30;56451;44.804;20.476;2023-05-14T12:19:47;21.60;57.92
68867;SHT30;56451;44.804;20.476;2023-05-14T12:22:19;21.71;57.89
68867;SHT30;56451;44.804;20.476;2023-05-14T12:24:56;21.84;57.45
68867;SHT30;56451;44.804;20.476;2023-05-14T12:27:26;21.88;57.00
68867;SHT30;56451;44.804;20.476;2023-05-14T12:29:59;21.92;56.53
68867;SHT30;56451;44.804;20.476;2023-05-14T12:32:30;21.98;56.25
68867;SHT30;56451;44.804;20.476;2023-05-14T12:34:55;21.96;56.27
68867;SHT30;56451;44.804;20.476;2023-05-14T12:37:21;21.92;56.16
68867;SHT30;56451;44.804;20.476;2023-05-14T12:39:47;21.92;56.27
68867;SHT30;56451;44.804;20.476;2023-05-14T12:42:14;21.95;56.38
68867;SHT30;56451;44.804;20.476;2023-05-14T12:44:41;22.04;56.46
68867;SHT30;56451;44.804;20.476;2023-05-14T12:47:07;22.08;56.13
68867;SHT30;56451;44.804;20.476;2023-05-14T12:49:33;22.16;55.87
68867;SHT30;56451;44.804;20.476;2023-05-14T12:51:59;22.19;55.65
68867;SHT30;56451;44.804;20.476;2023-05-14T12:54:25;22.23;55.55
68867;SHT30;56451;44.804;20.476;2023-05-14T12:56:51;22.32;55.61
68867;SHT30;56451;44.804;20.476;2023-05-14T12:59:17;22.40;55.08
68867;SHT30;56451;44.804;20.476;2023-05-14T13:01:43;22.43;55.12
68867;SHT30;56451;44.804;20.476;2023-05-14T13:04:09;22.52;55.20
68867;SHT30;56451;44.804;20.476;2023-05-14T13:06:40;22.60;54.72
68867;SHT30;56451;44.804;20.476;2023-05-14T13:09:06;22.66;54.61
68867;SHT30;56451;44.804;20.476;2023-05-14T13:11:33;22.71;54.27
68867;SHT30;56451;44.804;20.476;2023-05-14T13:14:00;22.77;54.07
68867;SHT30;56451;44.804;20.476;2023-05-14T13:16:27;22.83;53.47
68867;SHT30;56451;44.804;20.476;2023-05-14T13:18:53;22.86;53.12
68867;SHT30;56451;44.804;20.476;2023-05-14T13:21:20;22.86;52.83
68867;SHT30;56451;44.804;20.476;2023-05-14T13:23:49;22.87;53.45
68867;SHT30;56451;44.804;20.476;2023-05-14T13:26:15;22.88;52.91
68867;SHT30;56451;44.804;20.476;2023-05-14T13:28:41;22.83;52.79
68867;SHT30;56451;44.804;20.476;2023-05-14T13:31:11;22.75;52.63
68867;SHT30;56451;44.804;20.476;2023-05-14T13:33:40;22.70;52.61
68867;SHT30;56451;44.804;20.476;2023-05-14T13:36:07;22.71;52.73
68867;SHT30;56451;44.804;20.476;2023-05-14T13:38:34;22.68;52.78
68867;SHT30;56451;44.804;20.476;2023-05-14T13:41:01;22.71;52.73
68867;SHT30;56451;44.804;20.476;2023-05-14T13:43:31;22.70;52.53
68867;SHT30;56451;44.804;20.476;2023-05-14T13:45:58;22.64;52.49
68867;SHT30;56451;44.804;20.476;2023-05-14T13:48:24;22.60;52.33
68867;SHT30;56451;44.804;20.476;2023-05-14T13:50:50;22.49;52.70
68867;SHT30;56451;44.804;20.476;2023-05-14T13:53:17;22.49;52.59
68867;SHT30;56451;44.804;20.476;2023-05-14T13:55:44;22.53;52.86
68867;SHT30;56451;44.804;20.476;2023-05-14T13:58:10;22.53;52.29
68867;SHT30;56451;44.804;20.476;2023-05-14T14:00:36;22.52;52.29
68867;SHT30;56451;44.804;20.476;2023-05-14T14:03:02;22.53;52.26
68867;SHT30;56451;44.804;20.476;2023-05-14T14:05:28;22.49;52.52
68867;SHT30;56451;44.804;20.476;2023-05-14T14:07:54;22.47;52.22
68867;SHT30;56451;44.804;20.476;2023-05-14T14:10:20;22.42;52.34
68867;SHT30;56451;44.804;20.476;2023-05-14T14:12:47;22.39;52.76
68867;SHT30;56451;44.804;20.476;2023-05-14T14:15:13;22.40;52.69
68867;SHT30;56451;44.804;20.476;2023-05-14T14:17:39;22.43;53.00
68867;SHT30;56451;44.804;20.476;2023-05-14T14:20:07;22.42;53.15
68867;SHT30;56451;44.804;20.476;2023-05-14T14:22:34;22.43;53.44
68867;SHT30;56451;44.804;20.476;2023-05-14T14:25:00;22.47;53.41
68867;SHT30;56451;44.804;20.476;2023-05-14T14:27:26;22.49;53.55
68867;SHT30;56451;44.804;20.476;2023-05-14T14:29:53;22.53;53.54
68867;SHT30;56451;44.804;20.476;2023-05-14T14:32:19;22.54;53.12
68867;SHT30;56451;44.804;20.476;2023-05-14T14:34:45;22.56;52.92
68867;SHT30;56451;44.804;20.476;2023-05-14T14:37:10;22.63;52.98
68867;SHT30;56451;44.804;20.476;2023-05-14T14:39:36;22.64;52.90
68867;SHT30;56451;44.804;20.476;2023-05-14T14:42:03;22.60;52.52
68867;SHT30;56451;44.804;20.476;2023-05-14T14:44:29;22.64;52.57
68867;SHT30;56451;44.804;20.476;2023-05-14T14:46:55;22.59;52.50
68867;SHT30;56451;44.804;20.476;2023-05-14T14:49:22;22.56;52.49
68867;SHT30;56451;44.804;20.476;2023-05-14T14:51:48;22.53;52.43
68867;SHT30;56451;44.804;20.476;2023-05-14T14:54:14;22.50;52.43
68867;SHT30;56451;44.804;20.476;2023-05-14T14:56:40;22.52;52.56
68867;SHT30;56451;44.804;20.476;2023-05-14T14:59:07;22.60;52.26
68867;SHT30;56451;44.804;20.476;2023-05-14T15:01:34;22.63;52.14
68867;SHT30;56451;44.804;20.476;2023-05-14T15:04:00;22.68;51.95
68867;SHT30;56451;44.804;20.476;2023-05-14T15:06:26;22.74;51.97
68867;SHT30;56451;44.804;20.476;2023-05-14T15:11:40;22.77;51.92
68867;SHT30;56451;44.804;20.476;2023-05-14T15:14:07;22.81;51.62
68867;SHT30;56451;44.804;20.476;2023-05-14T15:16:33;22.81;51.51
68867;SHT30;56451;44.804;20.476;2023-05-14T15:18:59;22.68;51.72
68867;SHT30;56451;44.804;20.476;2023-05-14T15:21:25;22.60;51.80
68867;SHT30;56451;44.804;20.476;2023-05-14T15:23:51;22.53;51.99
68867;SHT30;56451;44.804;20.476;2023-05-14T15:26:17;22.42;52.27
68867;SHT30;56451;44.804;20.476;2023-05-14T15:28:43;22.36;52.51
68867;SHT30;56451;44.804;20.476;2023-05-14T15:31:09;22.19;52.73
68867;SHT30;56451;44.804;20.476;2023-05-14T15:33:35;22.12;52.94